Shin Mei Maru — JG5617 — position and weather

sailwx.info

Track history (hours):
 
Tides and Currents Weather Stations Pressure Air Temp Water Temp Dewpoint Dewpoint Depression Visibility Wind Speed Wind Dir Waves Ship Positions

Shin Mei Maru

Last reported at 2017-Aug-18 14:03 UTC. Time now 2017-Aug-19 20:27 UTC.
Position N 34°52' E 140°04'.

Length 160 m; draft 6.8 m.

Type: Cargo ship. MMSI: 431100922.

Date/timePositionNaut miles runAvg speedWind from/ knotsBaromVisibWave heightAir tempDewpointWater temp
2017-Aug-18 14:03N 34°52' E 140°04'1015.8
2017-Aug-18 13:27N 34°49' E 139°52'715.4
2017-Aug-18 13:00N 34°53' E 139°45'815.4
2017-Aug-18 12:30N 35°00' E 139°42'917.3
2017-Aug-18 12:00N 35°09' E 139°45'714.1
2017-Aug-18 11:30N 35°16' E 139°46'510.9
2017-Aug-18 11:00N 35°20' E 139°42'612.3
2017-Aug-18 10:30N 35°26' E 139°45'714.6
2017-Aug-18 10:00N 35°32' E 139°51'714.3
2017-Aug-18 09:30N 35°37' E 139°46'1 1.2
2017-Aug-18 09:01N 35°38' E 139°46'0 0.0
2017-Aug-18 08:20N 35°38' E 139°46'0 0.0
2017-Aug-18 07:59N 35°38' E 139°46'0 0.0
2017-Aug-18 07:29N 35°38' E 139°46'0 0.0
2017-Aug-18 06:59N 35°38' E 139°46'0 0.0
2017-Aug-18 06:29N 35°38' E 139°46'0 0.0
2017-Aug-18 05:59N 35°38' E 139°46'0 0.0
2017-Aug-18 05:29N 35°38' E 139°46'0 0.0
2017-Aug-18 04:56N 35°38' E 139°46'0 0.0
2017-Aug-18 04:26N 35°38' E 139°46'0 0.0
2017-Aug-18 03:59N 35°38' E 139°46'0 0.0
2017-Aug-18 03:29N 35°38' E 139°46'0 0.0
2017-Aug-18 02:59N 35°38' E 139°46'0 0.0
2017-Aug-18 02:29N 35°38' E 139°46'0 0.0
2017-Aug-18 01:59N 35°38' E 139°46'0 0.0
2017-Aug-18 01:29N 35°38' E 139°46'0 0.0
2017-Aug-18 00:56N 35°38' E 139°46'0 0.0
2017-Aug-18 00:29N 35°38' E 139°46'0 0.0
2017-Aug-17 23:59N 35°38' E 139°46'0 0.0
2017-Aug-17 23:26N 35°38' E 139°46'1 1.2
2017-Aug-17 23:00N 35°37' E 139°46'510.8
2017-Aug-17 22:30N 35°33' E 139°50'713.1
2017-Aug-17 22:00N 35°27' E 139°49'612.9
2017-Aug-17 21:30N 35°22' E 139°45'510.5
2017-Aug-17 21:00N 35°16' E 139°46'612.3
2017-Aug-17 20:30N 35°10' E 139°47'918.7
2017-Aug-17 20:00N 35°01' E 139°43'815.5
2017-Aug-17 19:30N 34°54' E 139°45'1216.3
2017-Aug-17 18:46N 34°50' E 139°60'516.1
2017-Aug-17 18:25N 34°53' E 140°06'917.4
2017-Aug-17 17:54N 34°58' E 140°14'  
2017-Aug-13 03:15N 35°04' E 140°24'3317.8
2017-Aug-13 01:23N 34°46' E 139°50'  
2017-Aug-08 21:02N 34°57' E 139°27'119.0
2017-Aug-08 20:59N 34°57' E 139°28'918.1
2017-Aug-08 20:30N 35°02' E 139°37'917.6
2017-Aug-08 20:00N 35°08' E 139°45'714.9
2017-Aug-08 19:31N 35°16' E 139°46'612.3
2017-Aug-08 19:00N 35°21' E 139°42'815.2
2017-Aug-08 18:30N 35°27' E 139°48'713.4
2017-Aug-08 18:01N 35°32' E 139°54'0 0.4
2017-Aug-08 17:19N 35°32' E 139°54'0 0.0
2017-Aug-08 17:01N 35°32' E 139°54'0 0.0
2017-Aug-08 16:22N 35°32' E 139°54'0 0.1
2017-Aug-08 15:58N 35°32' E 139°54'0 0.0
2017-Aug-08 15:28N 35°32' E 139°54'0 0.0
2017-Aug-08 14:58N 35°32' E 139°54'0 0.0
2017-Aug-08 14:28N 35°32' E 139°54'  
Track history (hours):
 
Tides and Currents Weather Stations Pressure Air Temp Water Temp Dewpoint Dewpoint Depression Visibility Wind Speed Wind Dir Waves Ship Positions

Shin Mei Maru

Last reported at 2017-Aug-18 14:03 UTC. Time now 2017-Aug-19 20:27 UTC.
Position N 34°52' E 140°04'.

Length 160 m; draft 6.8 m.

Type: Cargo ship. MMSI: 431100922.

Date/timePositionNaut miles runAvg speedWind from/ knotsBaromVisibWave heightAir tempDewpointWater temp
2017-Aug-18 14:03N 34°52' E 140°04'1015.8
2017-Aug-18 13:27N 34°49' E 139°52'715.4
2017-Aug-18 13:00N 34°53' E 139°45'815.4
2017-Aug-18 12:30N 35°00' E 139°42'917.3
2017-Aug-18 12:00N 35°09' E 139°45'714.1
2017-Aug-18 11:30N 35°16' E 139°46'510.9
2017-Aug-18 11:00N 35°20' E 139°42'612.3
2017-Aug-18 10:30N 35°26' E 139°45'714.6
2017-Aug-18 10:00N 35°32' E 139°51'714.3
2017-Aug-18 09:30N 35°37' E 139°46'1 1.2
2017-Aug-18 09:01N 35°38' E 139°46'0 0.0
2017-Aug-18 08:20N 35°38' E 139°46'0 0.0
2017-Aug-18 07:59N 35°38' E 139°46'0 0.0
2017-Aug-18 07:29N 35°38' E 139°46'0 0.0
2017-Aug-18 06:59N 35°38' E 139°46'0 0.0
2017-Aug-18 06:29N 35°38' E 139°46'0 0.0
2017-Aug-18 05:59N 35°38' E 139°46'0 0.0
2017-Aug-18 05:29N 35°38' E 139°46'0 0.0
2017-Aug-18 04:56N 35°38' E 139°46'0 0.0
2017-Aug-18 04:26N 35°38' E 139°46'0 0.0
2017-Aug-18 03:59N 35°38' E 139°46'0 0.0
2017-Aug-18 03:29N 35°38' E 139°46'0 0.0
2017-Aug-18 02:59N 35°38' E 139°46'0 0.0
2017-Aug-18 02:29N 35°38' E 139°46'0 0.0
2017-Aug-18 01:59N 35°38' E 139°46'0 0.0
2017-Aug-18 01:29N 35°38' E 139°46'0 0.0
2017-Aug-18 00:56N 35°38' E 139°46'0 0.0
2017-Aug-18 00:29N 35°38' E 139°46'0 0.0
2017-Aug-17 23:59N 35°38' E 139°46'0 0.0
2017-Aug-17 23:26N 35°38' E 139°46'1 1.2
2017-Aug-17 23:00N 35°37' E 139°46'510.8
2017-Aug-17 22:30N 35°33' E 139°50'713.1
2017-Aug-17 22:00N 35°27' E 139°49'612.9
2017-Aug-17 21:30N 35°22' E 139°45'510.5
2017-Aug-17 21:00N 35°16' E 139°46'612.3
2017-Aug-17 20:30N 35°10' E 139°47'918.7
2017-Aug-17 20:00N 35°01' E 139°43'815.5
2017-Aug-17 19:30N 34°54' E 139°45'1216.3
2017-Aug-17 18:46N 34°50' E 139°60'516.1
2017-Aug-17 18:25N 34°53' E 140°06'917.4
2017-Aug-17 17:54N 34°58' E 140°14'  
2017-Aug-13 03:15N 35°04' E 140°24'3317.8
2017-Aug-13 01:23N 34°46' E 139°50'  
2017-Aug-08 21:02N 34°57' E 139°27'119.0
2017-Aug-08 20:59N 34°57' E 139°28'918.1
2017-Aug-08 20:30N 35°02' E 139°37'917.6
2017-Aug-08 20:00N 35°08' E 139°45'714.9
2017-Aug-08 19:31N 35°16' E 139°46'612.3
2017-Aug-08 19:00N 35°21' E 139°42'815.2
2017-Aug-08 18:30N 35°27' E 139°48'713.4
2017-Aug-08 18:01N 35°32' E 139°54'0 0.4
2017-Aug-08 17:19N 35°32' E 139°54'0 0.0
2017-Aug-08 17:01N 35°32' E 139°54'0 0.0
2017-Aug-08 16:22N 35°32' E 139°54'0 0.1
2017-Aug-08 15:58N 35°32' E 139°54'0 0.0
2017-Aug-08 15:28N 35°32' E 139°54'0 0.0
2017-Aug-08 14:58N 35°32' E 139°54'0 0.0
2017-Aug-08 14:28N 35°32' E 139°54'  

Dump ship's entire track history